sensor_id;sensor_type;location;lat;lon;timestamp;P1;durP1;ratioP1;P2;durP2;ratioP2
44694;SDS011;32845;59.422;17.930;2023-04-03T00:03:00;7.28;;;0.70;;
44694;SDS011;32845;59.422;17.930;2023-04-03T00:07:31;7.53;;;1.27;;
44694;SDS011;32845;59.422;17.930;2023-04-03T00:12:02;9.18;;;0.80;;
44694;SDS011;32845;59.422;17.930;2023-04-03T00:16:33;8.32;;;0.70;;
44694;SDS011;32845;59.422;17.930;2023-04-03T00:21:04;5.38;;;0.60;;
44694;SDS011;32845;59.422;17.930;2023-04-03T00:25:35;10.38;;;0.95;;
44694;SDS011;32845;59.422;17.930;2023-04-03T00:30:07;5.90;;;1.20;;
44694;SDS011;32845;59.422;17.930;2023-04-03T00:34:40;10.63;;;0.85;;
44694;SDS011;32845;59.422;17.930;2023-04-03T00:39:11;4.90;;;0.68;;
44694;SDS011;32845;59.422;17.930;2023-04-03T00:43:42;3.10;;;0.80;;
44694;SDS011;32845;59.422;17.930;2023-04-03T00:53:23;4.27;;;0.63;;
44694;SDS011;32845;59.422;17.930;2023-04-03T00:58:18;10.93;;;1.10;;
44694;SDS011;32845;59.422;17.930;2023-04-03T01:02:52;10.40;;;1.05;;
44694;SDS011;32845;59.422;17.930;2023-04-03T01:07:24;11.23;;;0.88;;
44694;SDS011;32845;59.422;17.930;2023-04-03T01:16:53;4.90;;;1.00;;
44694;SDS011;32845;59.422;17.930;2023-04-03T01:26:24;4.25;;;0.88;;
44694;SDS011;32845;59.422;17.930;2023-04-03T01:35:47;2.63;;;0.98;;
44694;SDS011;32845;59.422;17.930;2023-04-03T01:40:18;7.53;;;1.13;;
44694;SDS011;32845;59.422;17.930;2023-04-03T01:44:48;7.20;;;0.90;;
44694;SDS011;32845;59.422;17.930;2023-04-03T01:49:19;5.65;;;0.80;;
44694;SDS011;32845;59.422;17.930;2023-04-03T01:53:50;5.57;;;0.82;;
44694;SDS011;32845;59.422;17.930;2023-04-03T01:58:21;5.55;;;0.80;;
44694;SDS011;32845;59.422;17.930;2023-04-03T02:02:52;3.88;;;0.98;;
44694;SDS011;32845;59.422;17.930;2023-04-03T02:07:23;3.80;;;0.60;;
44694;SDS011;32845;59.422;17.930;2023-04-03T02:11:53;7.65;;;0.70;;
44694;SDS011;32845;59.422;17.930;2023-04-03T02:16:25;4.55;;;0.93;;
44694;SDS011;32845;59.422;17.930;2023-04-03T02:20:55;5.30;;;0.70;;
44694;SDS011;32845;59.422;17.930;2023-04-03T02:25:26;5.57;;;0.95;;
44694;SDS011;32845;59.422;17.930;2023-04-03T02:29:57;11.25;;;1.15;;
44694;SDS011;32845;59.422;17.930;2023-04-03T02:34:28;5.32;;;0.93;;
44694;SDS011;32845;59.422;17.930;2023-04-03T02:38:59;7.70;;;1.23;;
44694;SDS011;32845;59.422;17.930;2023-04-03T02:43:30;6.65;;;1.00;;
44694;SDS011;32845;59.422;17.930;2023-04-03T02:48:00;2.42;;;0.70;;
44694;SDS011;32845;59.422;17.930;2023-04-03T02:52:31;5.07;;;1.23;;
44694;SDS011;32845;59.422;17.930;2023-04-03T02:57:02;6.03;;;0.57;;
44694;SDS011;32845;59.422;17.930;2023-04-03T03:01:33;13.68;;;1.08;;
44694;SDS011;32845;59.422;17.930;2023-04-03T03:06:04;6.32;;;0.70;;
44694;SDS011;32845;59.422;17.930;2023-04-03T03:10:36;7.57;;;1.05;;
44694;SDS011;32845;59.422;17.930;2023-04-03T03:15:07;5.03;;;0.80;;
44694;SDS011;32845;59.422;17.930;2023-04-03T03:19:38;11.65;;;1.00;;
44694;SDS011;32845;59.422;17.930;2023-04-03T03:24:09;4.50;;;0.90;;
44694;SDS011;32845;59.422;17.930;2023-04-03T03:28:40;9.43;;;1.00;;
44694;SDS011;32845;59.422;17.930;2023-04-03T03:33:10;2.20;;;0.50;;
44694;SDS011;32845;59.422;17.930;2023-04-03T03:37:41;3.25;;;0.73;;
44694;SDS011;32845;59.422;17.930;2023-04-03T03:42:12;11.63;;;0.73;;
44694;SDS011;32845;59.422;17.930;2023-04-03T03:46:42;3.40;;;1.02;;
44694;SDS011;32845;59.422;17.930;2023-04-03T03:51:13;6.97;;;0.90;;
44694;SDS011;32845;59.422;17.930;2023-04-03T03:55:44;9.30;;;1.17;;
44694;SDS011;32845;59.422;17.930;2023-04-03T04:00:15;6.03;;;1.20;;
44694;SDS011;32845;59.422;17.930;2023-04-03T04:04:46;3.80;;;0.82;;
44694;SDS011;32845;59.422;17.930;2023-04-03T04:09:16;6.80;;;0.98;;
44694;SDS011;32845;59.422;17.930;2023-04-03T04:13:48;2.97;;;0.90;;
44694;SDS011;32845;59.422;17.930;2023-04-03T04:18:19;9.80;;;0.90;;
44694;SDS011;32845;59.422;17.930;2023-04-03T04:22:51;15.80;;;1.17;;
44694;SDS011;32845;59.422;17.930;2023-04-03T04:27:21;10.10;;;0.73;;
44694;SDS011;32845;59.422;17.930;2023-04-03T04:31:52;9.65;;;0.88;;
44694;SDS011;32845;59.422;17.930;2023-04-03T04:36:23;6.38;;;0.77;;
44694;SDS011;32845;59.422;17.930;2023-04-03T04:40:54;7.53;;;0.95;;
44694;SDS011;32845;59.422;17.930;2023-04-03T04:45:24;4.82;;;0.63;;
44694;SDS011;32845;59.422;17.930;2023-04-03T04:49:55;5.40;;;0.70;;
44694;SDS011;32845;59.422;17.930;2023-04-03T04:54:26;8.27;;;1.20;;
44694;SDS011;32845;59.422;17.930;2023-04-03T04:58:56;6.00;;;1.05;;
44694;SDS011;32845;59.422;17.930;2023-04-03T05:03:27;5.53;;;0.77;;
44694;SDS011;32845;59.422;17.930;2023-04-03T05:07:58;6.57;;;1.00;;
44694;SDS011;32845;59.422;17.930;2023-04-03T05:12:29;5.15;;;0.90;;
44694;SDS011;32845;59.422;17.930;2023-04-03T05:16:59;3.63;;;0.80;;
44694;SDS011;32845;59.422;17.930;2023-04-03T05:21:30;6.50;;;1.00;;
44694;SDS011;32845;59.422;17.930;2023-04-03T05:26:02;4.75;;;1.00;;
44694;SDS011;32845;59.422;17.930;2023-04-03T05:30:33;9.15;;;1.17;;
44694;SDS011;32845;59.422;17.930;2023-04-03T05:35:04;4.05;;;0.65;;
44694;SDS011;32845;59.422;17.930;2023-04-03T05:39:35;16.60;;;1.40;;
44694;SDS011;32845;59.422;17.930;2023-04-03T05:44:08;6.38;;;0.63;;
44694;SDS011;32845;59.422;17.930;2023-04-03T05:48:39;5.25;;;1.25;;
44694;SDS011;32845;59.422;17.930;2023-04-03T05:53:12;12.18;;;1.10;;
44694;SDS011;32845;59.422;17.930;2023-04-03T05:57:49;7.80;;;1.02;;
44694;SDS011;32845;59.422;17.930;2023-04-03T06:02:20;13.70;;;1.00;;
44694;SDS011;32845;59.422;17.930;2023-04-03T06:06:53;5.38;;;0.93;;
44694;SDS011;32845;59.422;17.930;2023-04-03T06:11:25;6.95;;;1.10;;
44694;SDS011;32845;59.422;17.930;2023-04-03T06:15:56;4.95;;;0.93;;
44694;SDS011;32845;59.422;17.930;2023-04-03T06:20:27;5.78;;;0.80;;
44694;SDS011;32845;59.422;17.930;2023-04-03T06:24:58;23.55;;;1.63;;
44694;SDS011;32845;59.422;17.930;2023-04-03T06:29:28;8.00;;;0.75;;
44694;SDS011;32845;59.422;17.930;2023-04-03T06:33:59;9.30;;;1.10;;
44694;SDS011;32845;59.422;17.930;2023-04-03T06:38:30;2.95;;;0.90;;
44694;SDS011;32845;59.422;17.930;2023-04-03T06:43:02;5.63;;;0.82;;
44694;SDS011;32845;59.422;17.930;2023-04-03T06:47:32;7.20;;;1.27;;
44694;SDS011;32845;59.422;17.930;2023-04-03T06:52:03;6.18;;;0.77;;
44694;SDS011;32845;59.422;17.930;2023-04-03T06:56:35;8.95;;;1.25;;
44694;SDS011;32845;59.422;17.930;2023-04-03T07:01:06;24.42;;;1.40;;
44694;SDS011;32845;59.422;17.930;2023-04-03T07:05:38;8.40;;;1.15;;
44694;SDS011;32845;59.422;17.930;2023-04-03T07:10:09;9.38;;;1.05;;
44694;SDS011;32845;59.422;17.930;2023-04-03T07:14:40;13.88;;;1.20;;
44694;SDS011;32845;59.422;17.930;2023-04-03T07:19:11;8.45;;;1.23;;
44694;SDS011;32845;59.422;17.930;2023-04-03T07:23:42;7.85;;;0.88;;
44694;SDS011;32845;59.422;17.930;2023-04-03T07:28:13;5.28;;;0.88;;
44694;SDS011;32845;59.422;17.930;2023-04-03T07:32:44;6.30;;;0.93;;
44694;SDS011;32845;59.422;17.930;2023-04-03T07:37:16;5.78;;;1.27;;
44694;SDS011;32845;59.422;17.930;2023-04-03T07:41:47;6.72;;;0.88;;
44694;SDS011;32845;59.422;17.930;2023-04-03T07:46:18;16.65;;;1.30;;
44694;SDS011;32845;59.422;17.930;2023-04-03T07:50:50;7.63;;;0.90;;
44694;SDS011;32845;59.422;17.930;2023-04-03T07:55:22;5.20;;;0.80;;
44694;SDS011;32845;59.422;17.930;2023-04-03T07:59:52;5.47;;;0.70;;
44694;SDS011;32845;59.422;17.930;2023-04-03T08:04:24;4.10;;;0.98;;
44694;SDS011;32845;59.422;17.930;2023-04-03T08:08:56;19.50;;;1.05;;
44694;SDS011;32845;59.422;17.930;2023-04-03T08:13:27;5.97;;;0.82;;
44694;SDS011;32845;59.422;17.930;2023-04-03T08:17:58;3.35;;;0.80;;
44694;SDS011;32845;59.422;17.930;2023-04-03T08:22:30;4.68;;;0.68;;
44694;SDS011;32845;59.422;17.930;2023-04-03T08:27:01;4.10;;;0.70;;
44694;SDS011;32845;59.422;17.930;2023-04-03T08:31:31;10.40;;;0.70;;
44694;SDS011;32845;59.422;17.930;2023-04-03T08:36:03;5.28;;;0.90;;
44694;SDS011;32845;59.422;17.930;2023-04-03T08:40:36;4.10;;;1.00;;
44694;SDS011;32845;59.422;17.930;2023-04-03T08:45:12;6.68;;;1.38;;
44694;SDS011;32845;59.422;17.930;2023-04-03T08:49:53;10.77;;;0.98;;
44694;SDS011;32845;59.422;17.930;2023-04-03T08:54:30;2.70;;;0.77;;
44694;SDS011;32845;59.422;17.930;2023-04-03T08:59:05;4.90;;;1.05;;
44694;SDS011;32845;59.422;17.930;2023-04-03T09:03:42;9.02;;;1.10;;
44694;SDS011;32845;59.422;17.930;2023-04-03T09:08:23;4.43;;;0.63;;
44694;SDS011;32845;59.422;17.930;2023-04-03T09:13:24;9.30;;;0.90;;
44694;SDS011;32845;59.422;17.930;2023-04-03T09:18:04;6.95;;;0.90;;
44694;SDS011;32845;59.422;17.930;2023-04-03T09:22:42;4.68;;;0.70;;
44694;SDS011;32845;59.422;17.930;2023-04-03T09:27:14;7.13;;;0.90;;
44694;SDS011;32845;59.422;17.930;2023-04-03T09:31:45;17.90;;;1.00;;
44694;SDS011;32845;59.422;17.930;2023-04-03T09:41:16;9.55;;;1.48;;
44694;SDS011;32845;59.422;17.930;2023-04-03T09:45:49;7.15;;;0.60;;
44694;SDS011;32845;59.422;17.930;2023-04-03T09:50:21;8.27;;;0.85;;
44694;SDS011;32845;59.422;17.930;2023-04-03T09:54:53;4.38;;;1.05;;
44694;SDS011;32845;59.422;17.930;2023-04-03T09:59:23;11.05;;;1.00;;
44694;SDS011;32845;59.422;17.930;2023-04-03T10:08:43;4.43;;;0.77;;
44694;SDS011;32845;59.422;17.930;2023-04-03T10:13:28;6.40;;;0.80;;
44694;SDS011;32845;59.422;17.930;2023-04-03T10:18:02;8.38;;;0.85;;
44694;SDS011;32845;59.422;17.930;2023-04-03T10:27:22;4.05;;;0.80;;
44694;SDS011;32845;59.422;17.930;2023-04-03T10:46:47;18.48;;;0.80;;
44694;SDS011;32845;59.422;17.930;2023-04-03T10:56:01;6.38;;;0.70;;
44694;SDS011;32845;59.422;17.930;2023-04-03T11:00:48;2.60;;;0.65;;
44694;SDS011;32845;59.422;17.930;2023-04-03T11:10:23;4.82;;;0.90;;
44694;SDS011;32845;59.422;17.930;2023-04-03T11:15:11;8.02;;;0.93;;
44694;SDS011;32845;59.422;17.930;2023-04-03T11:24:31;1.90;;;0.65;;
44694;SDS011;32845;59.422;17.930;2023-04-03T11:29:08;5.32;;;0.75;;
44694;SDS011;32845;59.422;17.930;2023-04-03T11:38:28;2.05;;;0.60;;
44694;SDS011;32845;59.422;17.930;2023-04-03T11:43:07;3.60;;;0.70;;
44694;SDS011;32845;59.422;17.930;2023-04-03T11:57:22;8.90;;;0.73;;
44694;SDS011;32845;59.422;17.930;2023-04-03T12:07:16;2.33;;;0.60;;
44694;SDS011;32845;59.422;17.930;2023-04-03T12:11:49;3.60;;;0.60;;
44694;SDS011;32845;59.422;17.930;2023-04-03T12:16:23;2.40;;;0.43;;
44694;SDS011;32845;59.422;17.930;2023-04-03T12:20:55;5.82;;;0.75;;
44694;SDS011;32845;59.422;17.930;2023-04-03T12:25:41;4.20;;;0.50;;
44694;SDS011;32845;59.422;17.930;2023-04-03T12:30:25;9.07;;;0.82;;
44694;SDS011;32845;59.422;17.930;2023-04-03T12:54:13;2.92;;;0.65;;
44694;SDS011;32845;59.422;17.930;2023-04-03T12:59:16;7.13;;;0.70;;
44694;SDS011;32845;59.422;17.930;2023-04-03T13:03:55;2.05;;;0.45;;
44694;SDS011;32845;59.422;17.930;2023-04-03T13:08:27;2.85;;;0.40;;
44694;SDS011;32845;59.422;17.930;2023-04-03T13:13:08;2.13;;;0.40;;
44694;SDS011;32845;59.422;17.930;2023-04-03T13:17:41;5.28;;;0.68;;
44694;SDS011;32845;59.422;17.930;2023-04-03T13:27:10;3.03;;;0.40;;
44694;SDS011;32845;59.422;17.930;2023-04-03T13:31:42;7.93;;;0.98;;
44694;SDS011;32845;59.422;17.930;2023-04-03T13:36:16;3.28;;;0.50;;
44694;SDS011;32845;59.422;17.930;2023-04-03T13:40:51;6.82;;;0.75;;
44694;SDS011;32845;59.422;17.930;2023-04-03T13:45:29;7.95;;;0.85;;
44694;SDS011;32845;59.422;17.930;2023-04-03T13:50:21;4.10;;;0.40;;
44694;SDS011;32845;59.422;17.930;2023-04-03T13:54:59;2.95;;;0.50;;
44694;SDS011;32845;59.422;17.930;2023-04-03T13:59:50;8.15;;;0.90;;
44694;SDS011;32845;59.422;17.930;2023-04-03T14:04:22;4.03;;;0.63;;
44694;SDS011;32845;59.422;17.930;2023-04-03T14:08:55;2.42;;;0.50;;
44694;SDS011;32845;59.422;17.930;2023-04-03T14:13:26;1.42;;;0.40;;
44694;SDS011;32845;59.422;17.930;2023-04-03T14:18:00;5.80;;;0.77;;
44694;SDS011;32845;59.422;17.930;2023-04-03T14:22:31;8.68;;;0.63;;
44694;SDS011;32845;59.422;17.930;2023-04-03T14:27:05;7.45;;;0.63;;
44694;SDS011;32845;59.422;17.930;2023-04-03T14:31:47;10.45;;;0.98;;
44694;SDS011;32845;59.422;17.930;2023-04-03T14:36:20;7.15;;;0.60;;
44694;SDS011;32845;59.422;17.930;2023-04-03T14:40:53;1.80;;;0.40;;
44694;SDS011;32845;59.422;17.930;2023-04-03T14:45:24;6.15;;;0.57;;
44694;SDS011;32845;59.422;17.930;2023-04-03T14:49:56;3.25;;;0.40;;
44694;SDS011;32845;59.422;17.930;2023-04-03T14:54:27;3.08;;;0.43;;
44694;SDS011;32845;59.422;17.930;2023-04-03T14:58:59;1.45;;;0.55;;
44694;SDS011;32845;59.422;17.930;2023-04-03T15:03:31;13.75;;;0.77;;
44694;SDS011;32845;59.422;17.930;2023-04-03T15:08:02;1.98;;;0.40;;
44694;SDS011;32845;59.422;17.930;2023-04-03T15:12:33;5.00;;;0.50;;
44694;SDS011;32845;59.422;17.930;2023-04-03T15:17:04;2.47;;;0.40;;
44694;SDS011;32845;59.422;17.930;2023-04-03T15:21:35;4.32;;;0.88;;
44694;SDS011;32845;59.422;17.930;2023-04-03T15:26:06;2.83;;;0.80;;
44694;SDS011;32845;59.422;17.930;2023-04-03T15:30:37;9.20;;;0.60;;
44694;SDS011;32845;59.422;17.930;2023-04-03T15:35:10;3.47;;;0.55;;
44694;SDS011;32845;59.422;17.930;2023-04-03T15:39:41;6.03;;;1.10;;
44694;SDS011;32845;59.422;17.930;2023-04-03T15:44:12;9.32;;;0.60;;
44694;SDS011;32845;59.422;17.930;2023-04-03T15:48:43;10.30;;;1.52;;
44694;SDS011;32845;59.422;17.930;2023-04-03T15:53:14;7.53;;;0.50;;
44694;SDS011;32845;59.422;17.930;2023-04-03T15:57:45;4.32;;;0.63;;
44694;SDS011;32845;59.422;17.930;2023-04-03T16:02:16;5.57;;;1.00;;
44694;SDS011;32845;59.422;17.930;2023-04-03T16:06:47;3.22;;;0.73;;
44694;SDS011;32845;59.422;17.930;2023-04-03T16:11:18;7.97;;;0.90;;
44694;SDS011;32845;59.422;17.930;2023-04-03T16:15:48;3.10;;;0.43;;
44694;SDS011;32845;59.422;17.930;2023-04-03T16:20:19;7.00;;;0.93;;
44694;SDS011;32845;59.422;17.930;2023-04-03T16:24:51;4.20;;;0.40;;
44694;SDS011;32845;59.422;17.930;2023-04-03T16:29:22;3.25;;;0.50;;
44694;SDS011;32845;59.422;17.930;2023-04-03T16:33:53;1.05;;;0.60;;
44694;SDS011;32845;59.422;17.930;2023-04-03T16:38:25;4.88;;;0.80;;
44694;SDS011;32845;59.422;17.930;2023-04-03T16:42:56;7.13;;;0.50;;
44694;SDS011;32845;59.422;17.930;2023-04-03T16:47:26;7.13;;;0.88;;
44694;SDS011;32845;59.422;17.930;2023-04-03T16:52:01;1.55;;;0.40;;
44694;SDS011;32845;59.422;17.930;2023-04-03T16:56:32;6.10;;;0.57;;
44694;SDS011;32845;59.422;17.930;2023-04-03T17:01:16;2.25;;;0.30;;
44694;SDS011;32845;59.422;17.930;2023-04-03T17:05:48;5.50;;;0.85;;
44694;SDS011;32845;59.422;17.930;2023-04-03T17:10:19;3.70;;;0.22;;
44694;SDS011;32845;59.422;17.930;2023-04-03T17:14:50;7.63;;;0.70;;
44694;SDS011;32845;59.422;17.930;2023-04-03T17:19:21;4.65;;;0.60;;
44694;SDS011;32845;59.422;17.930;2023-04-03T17:23:57;8.77;;;0.60;;
44694;SDS011;32845;59.422;17.930;2023-04-03T17:28:30;2.28;;;0.90;;
44694;SDS011;32845;59.422;17.930;2023-04-03T17:33:01;1.73;;;0.40;;
44694;SDS011;32845;59.422;17.930;2023-04-03T17:37:32;7.85;;;0.70;;
44694;SDS011;32845;59.422;17.930;2023-04-03T17:42:02;5.85;;;0.70;;
44694;SDS011;32845;59.422;17.930;2023-04-03T17:46:33;7.00;;;0.85;;
44694;SDS011;32845;59.422;17.930;2023-04-03T17:51:11;5.07;;;0.73;;
44694;SDS011;32845;59.422;17.930;2023-04-03T17:55:43;11.65;;;1.15;;
44694;SDS011;32845;59.422;17.930;2023-04-03T18:00:14;5.53;;;1.00;;
44694;SDS011;32845;59.422;17.930;2023-04-03T18:04:45;12.48;;;1.48;;
44694;SDS011;32845;59.422;17.930;2023-04-03T18:09:20;6.50;;;1.13;;
44694;SDS011;32845;59.422;17.930;2023-04-03T18:14:01;7.00;;;1.00;;
44694;SDS011;32845;59.422;17.930;2023-04-03T18:18:34;3.72;;;0.90;;
44694;SDS011;32845;59.422;17.930;2023-04-03T18:23:04;9.85;;;1.48;;
44694;SDS011;32845;59.422;17.930;2023-04-03T18:27:35;7.32;;;1.20;;
44694;SDS011;32845;59.422;17.930;2023-04-03T18:32:06;6.47;;;0.90;;
44694;SDS011;32845;59.422;17.930;2023-04-03T18:36:41;9.32;;;1.55;;
44694;SDS011;32845;59.422;17.930;2023-04-03T18:41:11;22.02;;;1.90;;
44694;SDS011;32845;59.422;17.930;2023-04-03T18:45:43;15.50;;;1.42;;
44694;SDS011;32845;59.422;17.930;2023-04-03T18:50:15;20.10;;;2.05;;
44694;SDS011;32845;59.422;17.930;2023-04-03T18:54:46;25.27;;;2.47;;
44694;SDS011;32845;59.422;17.930;2023-04-03T18:59:17;10.63;;;1.60;;
44694;SDS011;32845;59.422;17.930;2023-04-03T19:03:48;11.48;;;1.67;;
44694;SDS011;32845;59.422;17.930;2023-04-03T19:08:18;21.27;;;2.97;;
44694;SDS011;32845;59.422;17.930;2023-04-03T19:12:50;14.00;;;2.60;;
44694;SDS011;32845;59.422;17.930;2023-04-03T19:17:21;18.25;;;3.50;;
44694;SDS011;32845;59.422;17.930;2023-04-03T19:21:52;18.23;;;2.50;;
44694;SDS011;32845;59.422;17.930;2023-04-03T19:26:22;12.48;;;1.98;;
44694;SDS011;32845;59.422;17.930;2023-04-03T19:30:53;14.50;;;2.70;;
44694;SDS011;32845;59.422;17.930;2023-04-03T19:35:25;5.13;;;1.55;;
44694;SDS011;32845;59.422;17.930;2023-04-03T19:39:56;11.32;;;1.90;;
44694;SDS011;32845;59.422;17.930;2023-04-03T19:44:28;7.57;;;1.73;;
44694;SDS011;32845;59.422;17.930;2023-04-03T19:49:01;4.32;;;1.33;;
44694;SDS011;32845;59.422;17.930;2023-04-03T19:53:32;8.00;;;1.95;;
44694;SDS011;32845;59.422;17.930;2023-04-03T19:58:03;10.02;;;1.92;;
44694;SDS011;32845;59.422;17.930;2023-04-03T20:02:34;8.73;;;1.25;;
44694;SDS011;32845;59.422;17.930;2023-04-03T20:07:05;9.65;;;1.83;;
44694;SDS011;32845;59.422;17.930;2023-04-03T20:11:36;9.15;;;1.58;;
44694;SDS011;32845;59.422;17.930;2023-04-03T20:16:09;10.00;;;1.63;;
44694;SDS011;32845;59.422;17.930;2023-04-03T20:20:39;13.55;;;1.77;;
44694;SDS011;32845;59.422;17.930;2023-04-03T20:25:10;16.60;;;1.52;;
44694;SDS011;32845;59.422;17.930;2023-04-03T20:29:42;5.05;;;1.00;;
44694;SDS011;32845;59.422;17.930;2023-04-03T20:34:13;2.17;;;0.95;;
44694;SDS011;32845;59.422;17.930;2023-04-03T20:38:45;9.10;;;0.93;;
44694;SDS011;32845;59.422;17.930;2023-04-03T20:43:16;3.75;;;1.33;;
44694;SDS011;32845;59.422;17.930;2023-04-03T20:47:48;10.30;;;1.42;;
44694;SDS011;32845;59.422;17.930;2023-04-03T20:52:21;12.13;;;1.25;;
44694;SDS011;32845;59.422;17.930;2023-04-03T20:56:51;4.65;;;1.08;;
44694;SDS011;32845;59.422;17.930;2023-04-03T21:01:22;15.55;;;1.33;;
44694;SDS011;32845;59.422;17.930;2023-04-03T21:20:30;3.95;;;0.95;;
44694;SDS011;32845;59.422;17.930;2023-04-03T21:25:01;6.47;;;1.05;;
44694;SDS011;32845;59.422;17.930;2023-04-03T21:29:31;6.05;;;0.98;;
44694;SDS011;32845;59.422;17.930;2023-04-03T21:34:02;10.15;;;2.17;;
44694;SDS011;32845;59.422;17.930;2023-04-03T21:38:33;6.03;;;1.65;;
44694;SDS011;32845;59.422;17.930;2023-04-03T21:43:04;11.98;;;1.40;;
44694;SDS011;32845;59.422;17.930;2023-04-03T21:47:35;15.23;;;2.17;;
44694;SDS011;32845;59.422;17.930;2023-04-03T21:52:07;18.45;;;1.92;;
44694;SDS011;32845;59.422;17.930;2023-04-03T21:56:38;18.27;;;1.77;;
44694;SDS011;32845;59.422;17.930;2023-04-03T22:05:40;13.65;;;2.00;;
44694;SDS011;32845;59.422;17.930;2023-04-03T22:10:11;11.88;;;2.85;;
44694;SDS011;32845;59.422;17.930;2023-04-03T22:14:41;12.52;;;1.40;;
44694;SDS011;32845;59.422;17.930;2023-04-03T22:19:12;16.50;;;1.90;;
44694;SDS011;32845;59.422;17.930;2023-04-03T22:23:43;10.73;;;1.75;;
44694;SDS011;32845;59.422;17.930;2023-04-03T22:28:14;26.88;;;2.35;;
44694;SDS011;32845;59.422;17.930;2023-04-03T22:32:45;9.85;;;1.60;;
44694;SDS011;32845;59.422;17.930;2023-04-03T22:37:16;3.42;;;1.60;;
44694;SDS011;32845;59.422;17.930;2023-04-03T22:41:47;19.58;;;1.88;;
44694;SDS011;32845;59.422;17.930;2023-04-03T22:46:18;18.25;;;1.48;;
44694;SDS011;32845;59.422;17.930;2023-04-03T22:50:49;9.60;;;2.45;;
44694;SDS011;32845;59.422;17.930;2023-04-03T22:55:20;4.97;;;1.13;;
44694;SDS011;32845;59.422;17.930;2023-04-03T22:59:53;6.10;;;1.27;;
44694;SDS011;32845;59.422;17.930;2023-04-03T23:04:24;7.70;;;1.55;;
44694;SDS011;32845;59.422;17.930;2023-04-03T23:08:54;16.50;;;1.80;;
44694;SDS011;32845;59.422;17.930;2023-04-03T23:13:25;11.27;;;1.45;;
44694;SDS011;32845;59.422;17.930;2023-04-03T23:17:56;7.57;;;1.50;;
44694;SDS011;32845;59.422;17.930;2023-04-03T23:22:27;7.70;;;1.40;;
44694;SDS011;32845;59.422;17.930;2023-04-03T23:26:57;9.90;;;1.80;;
44694;SDS011;32845;59.422;17.930;2023-04-03T23:31:28;8.55;;;1.38;;
44694;SDS011;32845;59.422;17.930;2023-04-03T23:35:59;6.65;;;1.58;;
44694;SDS011;32845;59.422;17.930;2023-04-03T23:40:35;19.27;;;1.63;;
44694;SDS011;32845;59.422;17.930;2023-04-03T23:45:06;9.70;;;1.70;;
44694;SDS011;32845;59.422;17.930;2023-04-03T23:49:37;7.88;;;1.60;;
44694;SDS011;32845;59.422;17.930;2023-04-03T23:54:08;17.23;;;1.67;;
44694;SDS011;32845;59.422;17.930;2023-04-03T23:58:38;15.27;;;1.58;;
